METAR Data
IDs: Format: Raw Decoded Include TAF

Data at: 1627 UTC 19 Sep 2018

KALO 191617Z 10017KT 4SM -RA BR BKN110 18/18 A2993 RMK AO2 LTG DSNT E AND SE P0003 T01780178
KALO 191602Z 11017G21KT 2SM -RA BR FEW055 BKN100 OVC120 18/18 A2995 RMK AO2 LTG DSNT E-S PRESFR P0002 T01780178
KALO 191554Z 09009KT 1 3/4SM RA BR FEW048 SCT075 BKN100 18/18 A3000 RMK AO2 LTG DSNT E-S TSE08B12E27 PRESFR SLP158 P0031 T01780178
KALO 191542Z 08007KT 1 1/4SM RA BR BKN049 BKN075 OVC100 18/18 A3002 RMK AO2 LTG DSNT E-SW TSE08B12E27 PRESFR P0027 T01780178
KALO 191531Z 11004KT 1SM R12/P6000FT VCTS RA BR FEW007 BKN049 OVC080 18/18 A3004 RMK AO2 LTG DSNT E-S TSE08B12E27 P0020 T01780178
KALO 191518Z 28007KT 1SM R12/P6000FT +TSRA BR FEW037 BKN045 OVC080 18/18 A3004 RMK AO2 LTG DSNT ALQDS TSE08B12 P0014 T01780178
KALO 191511Z 31004KT 1SM R12/P6000FT RA BR FEW035 BKN043 OVC080 18/18 A3003 RMK AO2 LTG DSNT ALQDS TSE08 P0010 T01780178
KALO 191457Z 02007KT 1SM R12/P6000FT TSRA BR SCT009 BKN032 OVC045 18/18 A3002 RMK AO2 LTG DSNT NE AND SE AND SW P0002 T01780178
KALO 191454Z 34003KT 3/4SM R12/P6000FT +TSRA BR SCT009 BKN029 OVC035 18/18 A3002 RMK AO2 LTG DSNT NE AND SE AND SW RAB1355 TSB38 SLP165 P0013 60013 T01780178 53025
KALO 191444Z 33006KT 2 1/2SM TSRA BR BKN009 OVC034 18/18 A3002 RMK AO2 LTG DSNT ALQDS RAB1355 TSB38 P0008 T01780178
KALO 191427Z 36010KT 2 1/2SM VCTS RA BR OVC007 18/18 A3000 RMK AO2 VIS 2V3 LTG DSNT ALQDS RAB1355 P0002 T01780178
KALO 191411Z 33008KT 2 1/2SM -RA BR OVC007 18/18 A3001 RMK AO2 LTG DSNT ALQDS RAB1355 P0001 T01780178
KALO 191354Z 29008KT 4SM BR OVC007 18/18 A3001 RMK AO2 LTG DSNT ALQDS PRESRR SLP160 T01780178
KALO 191254Z 11007KT 3SM BR OVC006 18/17 A2995 RMK AO2 LTG DSNT W AND NW SLP141 T01780172
KALO 191154Z 11008KT 7SM BKN006 OVC028 17/17 A2995 RMK AO2 SLP138 70134 T01670167 10172 20144 58006
KALO 191117Z 13005KT 8SM BKN006 OVC029 17/17 A2997 RMK AO2 T01720172
KALO 191054Z 11007KT 9SM FEW006 OVC029 17/17 A2996 RMK AO2 SLP141 T01720172
KALO 191019Z AUTO 10006KT 10SM SCT006 OVC031 17/17 A2996 RMK AO2 T01720167
KALO 190954Z AUTO 10004KT 10SM BKN006 OVC033 17/17 A2996 RMK AO2 SLP144 T01670167
KALO 190950Z AUTO 11003KT 10SM BKN007 OVC033 17/17 A2997 RMK AO2
KALO 190941Z AUTO 10005KT 10SM SCT007 OVC033 17/17 A2996 RMK AO2 T01670167
KALO 190854Z AUTO 09004KT 10SM BKN036 16/16 A2997 RMK AO2 SLP145 T01610161 55006
KALO 190754Z AUTO 10005KT 10SM CLR 16/16 A2996 RMK AO2 SLP143 T01560156
KALO 190654Z AUTO 08003KT 10SM CLR 15/15 A2998 RMK AO2 SLP150 T01500150
KALO 190554Z AUTO 09004KT 10SM CLR 16/16 A2999 RMK AO2 SLP152 T01610161 10194 20156 402060156 50007
KALO 190454Z AUTO 07005KT 10SM CLR 16/16 A2999 RMK AO2 SLP153 T01610161
KALO 190354Z AUTO 07005KT 10SM FEW018 16/16 A2999 RMK AO2 SLP154 T01610161
KALO 190328Z AUTO 00000KT 10SM BKN018 17/17 A2999 RMK AO2 T01720167
KALO 190304Z AUTO 04003KT 10SM SCT016 17/17 A2997 RMK AO2 T01720167
KALO 190254Z AUTO 04005KT 10SM BKN016 17/17 A2996 RMK AO2 SLP145 T01720167 53009
KALO 190154Z AUTO 06005KT 10SM OVC016 17/17 A2996 RMK AO2 SLP141 T01720172
KALO 190140Z AUTO 05004KT 10SM BKN016 17/16 A2996 RMK AO2 T01670161
KALO 190054Z AUTO 00000KT 10SM CLR 18/17 A2993 RMK AO2 SLP133 T01780172
KALO 182354Z 00000KT 10SM CLR 19/17 A2993 RMK AO2 SLP134 60003 T01940172 10206 20183 53002
KALO 182254Z 22004KT 10SM CLR 20/17 A2993 RMK AO2 SLP132 T02000172
KALO 182154Z 17009KT 10SM CLR 21/17 A2993 RMK AO2 SLP130 T02060172
KALO 182054Z 14009KT 10SM CLR 21/17 A2993 RMK AO2 SLP131 60003 T02060172 58029
KALO 181954Z 13015G26KT 10SM FEW032 SCT110 19/18 A2991 RMK AO2 PK WND 13026/1949 RAE38 PRESFR SLP127 P0002 T01890178
KALO 181854Z 23004KT 6SM -RA BR OVC100 19/17 A3004 RMK AO2 RAB45 SLP171 P0001 T01890172
KALO 181754Z 10008KT 10SM OVC095 18/17 A3002 RMK AO2 SLP162 60131 T01830172 10194 20167 58001
KALO 181654Z 09013KT 10SM OVC100 17/17 A3002 RMK AO2 RAE45 SLP163 P0008 T01720167
KALO 181613Z 09011KT 3SM RA BR SCT060 BKN095 OVC110 17/17 A3006 RMK AO2 P0006 T01720167
KALO 181554Z 03010KT 2SM VCTS RA BR BKN060 OVC075 17/17 A3007 RMK AO2 LTG DSNT NE-S TSE03B22E48 PRESFR SLP179 P0016 T01670167
KALO 181544Z 02009KT 2SM +TSRA BR SCT060 BKN075 OVC090 17/17 A3009 RMK AO2 LTG DSNT ALQDS TSE03B22 P0012 T01720167
KALO 181528Z 01010KT 10SM -TSRA SCT080 OVC090 17/17 A3009 RMK AO2 LTG DSNT ALQDS TSE03B22 PRESRR P0004 T01720167
KALO 181509Z 08013G22KT 6SM -RA BR FEW075 BKN100 OVC110 17/17 A3002 RMK AO2 LTG DSNT ALQDS TSE03 P0003 T01670167
KALO 181454Z 07013G21KT 3SM -TSRA BR FEW008 BKN075 OVC100 17/17 A3002 RMK AO2 PK WND 05034/1400 LTG DSNT ALQDS RAB04 TSB05 SLP163 P0107 60107 T01670167 51028
KALO 181451Z 07016G21KT 2 1/2SM TSRA BR FEW008 BKN075 OVC100 17/17 A3002 RMK AO2 PK WND 05034/1400 LTG DSNT ALQDS RAB04 TSB05 P0107
KALO 181430Z 04010G23KT 1SM R12/6000VP6000FT +TSRA BR FEW007 OVC016 17/17 A3007 RMK AO2 PK WND 05034/1400 LTG DSNT ALQDS RAB04 TSB05 P0085 T01670167
KALO 181422Z 03014G23KT 1/2SM R12/3500VP6000FT +TSRA FG FEW005 BKN012 OVC032 17/17 A3006 RMK AO2 PK WND 05034/1400 LTG DSNT ALQDS RAB04 TSB05 PRESRR P0050 T01670167
KALO 181415Z 06008G18KT 1 1/2SM R12/5000VP6000FT +TSRA BR BKN014 BKN031 OVC042 18/17 A3005 RMK AO2 PK WND 05034/1400 LTG DSNT ALQDS RAB04 TSB05 PRESRR P0009 T01780172
KALO 181413Z 09008G21KT 050V130 2 1/2SM R12/5000VP6000FT +TSRA BR SCT014 BKN021 OVC042 18/17 A3005 RMK AO2 PK WND 05034/1400 LTG DSNT ALQDS RAB04 TSB05 PRESRR P0005 T01780172
KALO 181411Z 06007G30KT 4SM R12/5000VP6000FT TSRA BR FEW014 BKN031 OVC042 18/17 A3004 RMK AO2 PK WND 05034/1400 LTG DSNT ALQDS RAB04 TSB05 PRESRR P0000 T01780167
KALO 181354Z 05019G28KT 10SM VCTS BKN030 OVC047 19/17 A2999 RMK AO2 PK WND 06028/1351 LTG DSNT ALQDS PRESRR SLP154 T01890167
KALO 181254Z 09009KT 10SM BKN060 BKN075 OVC085 19/18 A2993 RMK AO2 SLP133 T01890178
KALO 181154Z 06007KT 10SM CLR 18/17 A2993 RMK AO2 SLP131 T01780172 10200 20172 53004
KALO 181054Z 05005KT 10SM CLR 18/17 A2993 RMK AO2 SLP131 T01780172
KALO 180954Z AUTO 16003KT 10SM CLR 19/18 A2991 RMK AO2 SLP123 T01940178
KALO 180854Z AUTO 16003KT 10SM CLR 19/18 A2992 RMK AO2 SLP124 T01940178 55010
KALO 180754Z AUTO 16007KT 10SM CLR 20/17 A2991 RMK AO2 SLP123 T02000172
KALO 180654Z AUTO 18005KT 10SM CLR 19/17 A2994 RMK AO2 SLP130 T01940167
KALO 180554Z AUTO 17006KT 10SM CLR 20/17 A2995 RMK AO2 SLP134 T02000167 10217 20189 403330178 50000
KALO 180454Z AUTO 15005KT 10SM CLR 20/16 A2995 RMK AO2 SLP137 T02000161